Time;durP1;ratioP1;P1;durP2;ratioP2;P2;SDS_P1;SDS_P2;PMS_P1;PMS_P2;Temp;Humidity;BMP_temperature;BMP_pressure;BME280_temperature;BME280_humidity;BME280_pressure;Samples;Min_cycle;Max_cycle;Signal;HPM_P1;HPM_P2
2021/01/12 00:00:49;;;;;;;40.10;24.70;;;;;;;;;;5071705;28;20923;-47
2021/01/12 00:03:15;;;;;;;43.73;24.77;;;;;;;;;;5071922;28;20182;-49
2021/01/12 00:05:42;;;;;;;44.33;23.37;;;;;;;;;;5071057;28;20860;-46
2021/01/12 00:08:08;;;;;;;46.50;25.83;;;;;;;;;;5071321;28;20416;-47
2021/01/12 00:10:34;;;;;;;46.40;24.30;;;;;;;;;;5071432;28;20217;-46
2021/01/12 00:13:00;;;;;;;46.92;24.25;;;;;;;;;;5071770;28;20168;-48
2021/01/12 00:15:26;;;;;;;39.23;22.90;;;;;;;;;;5070125;28;20264;-48
2021/01/12 00:17:52;;;;;;;51.43;24.90;;;;;;;;;;5071717;28;20402;-47
2021/01/12 00:20:18;;;;;;;35.87;20.70;;;;;;;;;;5071680;28;20430;-45
2021/01/12 00:22:44;;;;;;;42.72;24.73;;;;;;;;;;5071580;28;20414;-47
2021/01/12 00:25:10;;;;;;;39.63;24.50;;;;;;;;;;5071625;28;20655;-47
2021/01/12 00:27:36;;;;;;;43.15;23.60;;;;;;;;;;5071185;28;20407;-46
2021/01/12 00:30:03;;;;;;;42.90;24.90;;;;;;;;;;5071340;28;20210;-47
2021/01/12 00:32:30;;;;;;;45.08;24.42;;;;;;;;;;5071271;28;20405;-49
2021/01/12 00:34:56;;;;;;;41.60;23.67;;;;;;;;;;5071245;28;20181;-48
2021/01/12 00:37:23;;;;;;;44.45;23.85;;;;;;;;;;5069768;28;20255;-47
2021/01/12 00:39:50;;;;;;;44.38;25.65;;;;;;;;;;5071152;28;20196;-47
2021/01/12 00:42:16;;;;;;;44.90;23.73;;;;;;;;;;5071072;28;20170;-47
2021/01/12 00:44:42;;;;;;;38.25;23.13;;;;;;;;;;5071057;28;20651;-47
2021/01/12 00:47:08;;;;;;;45.97;26.00;;;;;;;;;;5070584;28;20170;-48
2021/01/12 00:49:34;;;;;;;41.05;23.27;;;;;;;;;;5070791;28;20531;-47
2021/01/12 00:52:00;;;;;;;38.10;21.73;;;;;;;;;;5070971;28;20176;-48
2021/01/12 00:54:26;;;;;;;36.23;22.70;;;;;;;;;;5070634;28;20175;-47
2021/01/12 00:56:53;;;;;;;38.38;22.15;;;;;;;;;;5070682;28;20399;-47
2021/01/12 00:59:19;;;;;;;35.25;21.38;;;;;;;;;;5070646;28;20196;-47
2021/01/12 01:01:46;;;;;;;36.00;21.50;;;;;;;;;;5070811;28;20220;-47
2021/01/12 01:04:13;;;;;;;35.20;21.17;;;;;;;;;;5070563;28;20398;-48
2021/01/12 01:06:39;;;;;;;31.83;20.50;;;;;;;;;;5070110;28;20181;-46
2021/01/12 01:09:05;;;;;;;32.13;20.37;;;;;;;;;;5070434;28;20201;-47
2021/01/12 01:11:31;;;;;;;39.30;21.80;;;;;;;;;;5069881;28;20450;-49
2021/01/12 01:13:57;;;;;;;34.43;22.03;;;;;;;;;;5070634;28;20162;-47
2021/01/12 01:16:33;;;;;;;36.05;21.10;;;;;;;;;;5070398;28;20450;-49
2021/01/12 01:18:59;;;;;;;29.33;19.55;;;;;;;;;;5070663;28;20167;-48
2021/01/12 01:21:25;;;;;;;37.53;22.00;;;;;;;;;;5070630;28;20231;-48
2021/01/12 01:23:52;;;;;;;37.03;22.07;;;;;;;;;;5070640;28;20795;-47
2021/01/12 01:26:18;;;;;;;32.75;19.67;;;;;;;;;;5070145;28;20938;-47
2021/01/12 01:28:44;;;;;;;37.33;22.20;;;;;;;;;;5070490;28;20186;-47
2021/01/12 01:31:10;;;;;;;38.07;21.27;;;;;;;;;;5070242;28;20555;-47
2021/01/12 01:33:36;;;;;;;37.00;21.15;;;;;;;;;;5070519;28;20404;-48
2021/01/12 01:36:02;;;;;;;34.07;20.30;;;;;;;;;;5070079;28;20235;-47
2021/01/12 01:38:28;;;;;;;36.63;20.83;;;;;;;;;;5069569;28;20942;-46
2021/01/12 01:41:00;;;;;;;36.97;20.77;;;;;;;;;;5070277;28;20186;-47
2021/01/12 01:43:26;;;;;;;36.20;20.40;;;;;;;;;;5070393;28;20440;-47
2021/01/12 01:45:53;;;;;;;29.35;17.15;;;;;;;;;;5069994;28;20179;-47
2021/01/12 01:48:19;;;;;;;32.20;20.50;;;;;;;;;;5070293;28;20171;-48
2021/01/12 01:50:45;;;;;;;32.80;18.30;;;;;;;;;;5070397;28;20574;-47
2021/01/12 01:53:12;;;;;;;34.40;17.27;;;;;;;;;;5070341;28;20170;-48
2021/01/12 01:55:38;;;;;;;27.20;17.20;;;;;;;;;;5070102;28;20193;-46
2021/01/12 01:58:05;;;;;;;26.48;16.00;;;;;;;;;;5070190;28;20211;-47
2021/01/12 02:00:31;;;;;;;27.38;18.00;;;;;;;;;;5070167;28;20192;-47
2021/01/12 02:03:14;;;;;;;26.48;15.80;;;;;;;;;;5069326;28;20216;-48
2021/01/12 02:05:41;;;;;;;26.05;14.50;;;;;;;;;;5069328;28;20545;-47
2021/01/12 02:08:12;;;;;;;21.92;15.02;;;;;;;;;;5069172;28;20557;-47
2021/01/12 02:10:39;;;;;;;21.85;13.93;;;;;;;;;;5069246;28;20224;-47
2021/01/12 02:13:06;;;;;;;22.33;15.02;;;;;;;;;;5069922;28;20165;-47
2021/01/12 02:15:33;;;;;;;22.55;13.70;;;;;;;;;;5070023;28;20216;-47
2021/01/12 02:17:59;;;;;;;25.98;14.30;;;;;;;;;;5070170;28;20158;-47
2021/01/12 02:20:28;;;;;;;22.73;14.23;;;;;;;;;;5069797;28;20747;-47
2021/01/12 02:23:10;;;;;;;17.60;12.43;;;;;;;;;;5073045;28;20597;-47
2021/01/12 02:25:38;;;;;;;18.00;12.23;;;;;;;;;;5073384;28;20183;-48
2021/01/12 02:28:08;;;;;;;22.02;13.93;;;;;;;;;;5073644;28;20195;-48
2021/01/12 02:30:35;;;;;;;18.13;11.75;;;;;;;;;;5073354;28;20200;-47
2021/01/12 02:33:01;;;;;;;24.08;13.13;;;;;;;;;;5073711;28;20545;-48
2021/01/12 02:35:27;;;;;;;18.67;12.47;;;;;;;;;;5073178;28;20173;-49
2021/01/12 02:37:55;;;;;;;20.38;12.95;;;;;;;;;;5072311;28;20428;-47
2021/01/12 02:40:21;;;;;;;17.85;12.95;;;;;;;;;;5073484;28;20225;-47
2021/01/12 02:42:47;;;;;;;19.35;13.20;;;;;;;;;;5073623;28;20197;-48
2021/01/12 02:45:13;;;;;;;20.50;12.85;;;;;;;;;;5073048;28;20216;-47
2021/01/12 02:47:39;;;;;;;20.38;14.02;;;;;;;;;;5073253;28;20176;-49
2021/01/12 02:50:06;;;;;;;20.45;13.40;;;;;;;;;;5073189;28;20213;-48
2021/01/12 02:52:32;;;;;;;22.80;14.25;;;;;;;;;;5073063;28;20209;-47
2021/01/12 02:54:58;;;;;;;17.80;13.37;;;;;;;;;;5073302;28;20551;-46
2021/01/12 02:57:24;;;;;;;17.63;13.60;;;;;;;;;;5072608;28;20414;-46
2021/01/12 02:59:50;;;;;;;19.67;12.77;;;;;;;;;;5072972;28;20650;-46
2021/01/12 03:02:16;;;;;;;16.80;12.37;;;;;;;;;;5072929;28;20399;-47
2021/01/12 03:04:42;;;;;;;17.73;11.43;;;;;;;;;;5073030;28;20418;-47
2021/01/12 03:07:08;;;;;;;18.93;12.63;;;;;;;;;;5071652;28;20434;-47
2021/01/12 03:09:34;;;;;;;15.80;10.95;;;;;;;;;;5072679;28;20453;-49
2021/01/12 03:12:00;;;;;;;13.98;9.73;;;;;;;;;;5072679;28;20168;-47
2021/01/12 03:14:26;;;;;;;17.50;10.60;;;;;;;;;;5072853;28;20164;-48
2021/01/12 03:16:52;;;;;;;17.67;10.32;;;;;;;;;;5072534;28;20395;-49
2021/01/12 03:19:18;;;;;;;14.73;9.60;;;;;;;;;;5072593;28;20179;-48
2021/01/12 03:21:45;;;;;;;13.82;9.70;;;;;;;;;;5072568;28;20189;-46
2021/01/12 03:24:11;;;;;;;15.45;10.13;;;;;;;;;;5072428;28;20275;-47
2021/01/12 03:26:37;;;;;;;11.40;8.53;;;;;;;;;;5072286;28;20170;-47
2021/01/12 03:29:03;;;;;;;11.02;8.98;;;;;;;;;;5072305;28;20474;-47
2021/01/12 03:31:29;;;;;;;11.30;8.70;;;;;;;;;;5072486;28;20239;-47
2021/01/12 03:33:56;;;;;;;10.10;8.65;;;;;;;;;;5071270;28;20166;-49
2021/01/12 03:36:22;;;;;;;10.38;8.05;;;;;;;;;;5070808;28;20710;-47
2021/01/12 03:38:48;;;;;;;11.98;8.38;;;;;;;;;;5071267;28;20539;-47
2021/01/12 03:41:14;;;;;;;12.18;8.55;;;;;;;;;;5072260;28;20610;-48
2021/01/12 03:43:40;;;;;;;13.53;8.80;;;;;;;;;;5072271;28;20170;-47
2021/01/12 03:46:06;;;;;;;10.45;7.35;;;;;;;;;;5071846;28;20919;-49
2021/01/12 03:48:32;;;;;;;11.77;8.70;;;;;;;;;;5072089;28;20181;-48
2021/01/12 03:50:58;;;;;;;8.13;7.30;;;;;;;;;;5071861;28;20566;-47
2021/01/12 03:53:24;;;;;;;9.25;7.40;;;;;;;;;;5072054;28;20393;-47
2021/01/12 03:55:50;;;;;;;9.50;7.90;;;;;;;;;;5071731;28;20542;-48
2021/01/12 03:58:16;;;;;;;8.23;7.38;;;;;;;;;;5072023;28;20393;-47
2021/01/12 04:00:42;;;;;;;9.00;7.60;;;;;;;;;;5071664;28;20557;-47
2021/01/12 04:03:08;;;;;;;9.32;7.35;;;;;;;;;;5071826;28;20475;-48
2021/01/12 04:05:35;;;;;;;9.40;7.07;;;;;;;;;;5071673;28;20252;-47
2021/01/12 04:08:01;;;;;;;8.95;6.63;;;;;;;;;;5070106;28;20482;-48
2021/01/12 04:10:28;;;;;;;8.48;7.00;;;;;;;;;;5083229;22;20238;-57
2021/01/12 04:12:54;;;;;;;9.60;7.47;;;;;;;;;;5051601;28;20268;-57
2021/01/12 04:15:19;;;;;;;7.73;6.83;;;;;;;;;;5051523;28;20649;-57
2021/01/12 04:17:45;;;;;;;7.93;6.00;;;;;;;;;;5051600;28;20409;-57
2021/01/12 04:20:12;;;;;;;8.57;7.60;;;;;;;;;;5053617;28;20404;-57
2021/01/12 04:22:38;;;;;;;9.95;7.38;;;;;;;;;;5071429;28;20432;-57
2021/01/12 04:25:06;;;;;;;7.93;6.40;;;;;;;;;;5071248;28;20205;-57
2021/01/12 04:27:32;;;;;;;6.63;5.90;;;;;;;;;;5070983;28;20462;-56
2021/01/12 04:29:58;;;;;;;6.90;6.13;;;;;;;;;;5071196;28;20617;-57
2021/01/12 04:32:24;;;;;;;6.97;5.75;;;;;;;;;;5071267;28;20412;-57
2021/01/12 04:34:50;;;;;;;7.40;6.40;;;;;;;;;;5070883;28;20215;-57
2021/01/12 04:37:16;;;;;;;6.30;5.17;;;;;;;;;;5069609;28;20958;-57
2021/01/12 04:39:42;;;;;;;6.00;5.40;;;;;;;;;;5070992;28;20581;-57
2021/01/12 04:42:08;;;;;;;7.23;5.30;;;;;;;;;;5071062;28;20427;-56
2021/01/12 04:44:34;;;;;;;11.00;5.75;;;;;;;;;;5070342;28;20499;-57
2021/01/12 04:47:00;;;;;;;9.67;6.47;;;;;;;;;;5069724;28;20300;-56
2021/01/12 04:49:26;;;;;;;6.53;5.77;;;;;;;;;;5070754;28;20448;-57
2021/01/12 04:51:53;;;;;;;8.43;5.00;;;;;;;;;;5070885;28;20537;-56
2021/01/12 04:54:19;;;;;;;6.93;6.00;;;;;;;;;;5070696;28;20618;-56
2021/01/12 04:56:45;;;;;;;5.90;5.30;;;;;;;;;;5069794;28;20246;-56
2021/01/12 04:59:11;;;;;;;6.97;5.63;;;;;;;;;;5052811;28;20416;-57
2021/01/12 05:01:37;;;;;;;6.18;5.50;;;;;;;;;;5070640;28;20922;-56
2021/01/12 05:04:06;;;;;;;6.13;5.53;;;;;;;;;;5070872;28;20253;-57
2021/01/12 05:06:32;;;;;;;6.40;5.75;;;;;;;;;;5070405;28;20437;-56
2021/01/12 05:08:58;;;;;;;6.23;5.57;;;;;;;;;;5069830;28;20771;-56
2021/01/12 05:11:28;;;;;;;5.90;5.30;;;;;;;;;;5070481;28;20464;-57
2021/01/12 05:13:55;;;;;;;6.35;5.75;;;;;;;;;;5070818;28;20283;-56
2021/01/12 05:16:23;;;;;;;5.72;5.22;;;;;;;;;;5070361;28;20253;-57
2021/01/12 05:18:50;;;;;;;5.72;4.70;;;;;;;;;;5070452;28;20177;-57
2021/01/12 05:21:17;;;;;;;6.63;5.53;;;;;;;;;;5070181;28;20239;-57
2021/01/12 05:24:02;;;;;;;7.05;4.88;;;;;;;;;;5070590;28;20170;-56
2021/01/12 05:26:35;;;;;;;4.90;4.50;;;;;;;;;;5070342;28;20168;-57
2021/01/12 05:29:02;;;;;;;5.60;4.88;;;;;;;;;;5070560;28;20191;-57
2021/01/12 05:31:28;;;;;;;4.95;4.40;;;;;;;;;;5070400;28;20211;-57
2021/01/12 05:33:55;;;;;;;5.35;4.85;;;;;;;;;;5070674;28;20304;-57
2021/01/12 05:36:21;;;;;;;6.20;5.05;;;;;;;;;;5070147;28;20201;-57
2021/01/12 05:38:48;;;;;;;4.70;4.30;;;;;;;;;;5069678;28;20170;-56
2021/01/12 05:41:14;;;;;;;4.20;3.90;;;;;;;;;;5070447;28;20558;-56
2021/01/12 05:43:44;;;;;;;4.85;4.40;;;;;;;;;;5070411;28;20166;-57
2021/01/12 05:46:14;;;;;;;4.90;4.60;;;;;;;;;;5070289;28;20155;-57
2021/01/12 05:48:41;;;;;;;6.28;4.10;;;;;;;;;;5070279;28;20167;-56
2021/01/12 05:51:08;;;;;;;5.60;4.75;;;;;;;;;;5070579;28;20179;-57
2021/01/12 05:53:43;;;;;;;4.75;4.32;;;;;;;;;;5070468;28;20171;-57
2021/01/12 05:56:12;;;;;;;4.90;4.50;;;;;;;;;;5070806;28;20166;-56
2021/01/12 05:58:41;;;;;;;5.35;4.78;;;;;;;;;;5074447;28;20515;-56
2021/01/12 06:01:08;;;;;;;5.22;4.80;;;;;;;;;;5074405;28;20232;-56
2021/01/12 06:03:35;;;;;;;6.10;4.15;;;;;;;;;;5074053;28;20171;-57
2021/01/12 06:06:01;;;;;;;6.75;4.90;;;;;;;;;;5073869;28;20170;-57
2021/01/12 06:08:28;;;;;;;5.63;5.13;;;;;;;;;;5072778;28;20518;-57
2021/01/12 06:10:54;;;;;;;5.55;5.13;;;;;;;;;;5073717;28;20220;-57
2021/01/12 06:13:20;;;;;;;5.95;5.38;;;;;;;;;;5073989;28;20247;-56
2021/01/12 06:15:48;;;;;;;5.55;5.05;;;;;;;;;;5073457;28;20188;-56
2021/01/12 06:18:15;;;;;;;6.22;5.70;;;;;;;;;;5073941;28;20163;-57
2021/01/12 06:20:50;;;;;;;5.60;5.10;;;;;;;;;;5073649;28;20232;-56
2021/01/12 06:23:20;;;;;;;6.85;6.03;;;;;;;;;;5073663;28;20169;-56
2021/01/12 06:25:46;;;;;;;5.85;4.78;;;;;;;;;;5073280;28;20170;-57
2021/01/12 06:28:12;;;;;;;7.70;5.93;;;;;;;;;;5073654;28;20582;-57
2021/01/12 06:30:38;;;;;;;4.95;4.47;;;;;;;;;;5073323;28;20490;-57
2021/01/12 06:33:04;;;;;;;4.57;4.17;;;;;;;;;;5073562;28;20588;-57
2021/01/12 06:35:37;;;;;;;4.88;4.38;;;;;;;;;;5073115;28;20400;-57
2021/01/12 06:38:06;;;;;;;4.57;4.18;;;;;;;;;;5072670;28;20188;-56
2021/01/12 06:40:32;;;;;;;6.45;3.95;;;;;;;;;;5073568;28;20534;-57
2021/01/12 06:42:58;;;;;;;5.82;4.47;;;;;;;;;;5073354;28;20210;-57
2021/01/12 06:45:24;;;;;;;4.35;4.05;;;;;;;;;;5073108;28;20171;-57
2021/01/12 06:47:50;;;;;;;6.43;4.00;;;;;;;;;;5073184;28;20694;-56
2021/01/12 06:50:16;;;;;;;4.00;3.70;;;;;;;;;;5073172;28;20307;-56
2021/01/12 06:52:47;;;;;;;4.45;4.00;;;;;;;;;;5073001;28;20397;-57
2021/01/12 06:55:14;;;;;;;4.25;3.95;;;;;;;;;;5072958;28;20162;-57
2021/01/12 06:57:43;;;;;;;4.05;3.60;;;;;;;;;;5072912;28;20173;-57
2021/01/12 07:00:10;;;;;;;3.58;3.28;;;;;;;;;;5072911;28;20249;-56
2021/01/12 07:02:36;;;;;;;3.50;3.20;;;;;;;;;;5054975;28;20260;-57
2021/01/12 07:05:09;;;;;;;3.85;3.42;;;;;;;;;;5072878;28;20171;-57
2021/01/12 07:07:39;;;;;;;3.85;3.50;;;;;;;;;;5071114;28;20178;-56
2021/01/12 07:10:07;;;;;;;4.28;3.95;;;;;;;;;;5072330;28;20669;-56
2021/01/12 07:12:33;;;;;;;4.47;2.93;;;;;;;;;;5072846;28;20380;-57
2021/01/12 07:15:03;;;;;;;3.50;3.20;;;;;;;;;;5072595;28;20831;-56
2021/01/12 07:17:30;;;;;;;3.50;3.30;;;;;;;;;;5072556;28;20393;-56
2021/01/12 07:20:02;;;;;;;3.97;3.60;;;;;;;;;;5072844;28;20178;-57
2021/01/12 07:22:31;;;;;;;4.22;3.85;;;;;;;;;;5072563;28;20250;-57
2021/01/12 07:24:57;;;;;;;3.92;3.63;;;;;;;;;;5072546;28;20510;-56
2021/01/12 07:27:23;;;;;;;4.25;3.85;;;;;;;;;;5072299;28;20557;-57
2021/01/12 07:29:51;;;;;;;8.23;4.20;;;;;;;;;;5072378;28;20198;-57
2021/01/12 07:32:26;;;;;;;4.13;3.83;;;;;;;;;;5072321;28;20521;-57
2021/01/12 07:34:57;;;;;;;3.75;3.47;;;;;;;;;;5072273;28;20174;-57
2021/01/12 07:37:27;;;;;;;5.25;4.68;;;;;;;;;;5072192;28;20672;-57
2021/01/12 07:39:53;;;;;;;4.40;3.88;;;;;;;;;;5053587;28;20609;-57
2021/01/12 07:42:19;;;;;;;4.20;3.90;;;;;;;;;;5072362;28;20214;-57
2021/01/12 07:44:45;;;;;;;4.20;3.80;;;;;;;;;;5072277;28;20206;-57
2021/01/12 07:47:11;;;;;;;7.73;4.10;;;;;;;;;;5071256;28;20404;-57
2021/01/12 07:49:37;;;;;;;6.18;4.30;;;;;;;;;;5071758;28;20457;-57
2021/01/12 07:52:03;;;;;;;5.00;4.57;;;;;;;;;;5072022;28;20190;-57
2021/01/12 07:54:29;;;;;;;4.83;4.43;;;;;;;;;;5072385;28;20398;-57
2021/01/12 07:56:55;;;;;;;5.73;4.27;;;;;;;;;;5071968;28;20401;-57
2021/01/12 07:59:25;;;;;;;5.30;4.15;;;;;;;;;;5072168;28;20405;-57
2021/01/12 08:01:51;;;;;;;5.07;4.47;;;;;;;;;;5071800;28;20294;-57
2021/01/12 08:04:17;;;;;;;5.97;4.43;;;;;;;;;;5070856;28;20815;-57
2021/01/12 08:06:46;;;;;;;5.13;4.63;;;;;;;;;;5070532;28;20184;-57
2021/01/12 08:09:20;;;;;;;6.30;5.70;;;;;;;;;;5071721;28;20186;-57
2021/01/12 08:11:47;;;;;;;6.82;5.35;;;;;;;;;;5071293;28;20235;-57
2021/01/12 08:14:13;;;;;;;4.72;4.20;;;;;;;;;;5071967;28;20526;-57
2021/01/12 08:16:39;;;;;;;6.93;4.60;;;;;;;;;;5071407;28;20163;-56
2021/01/12 08:19:05;;;;;;;5.63;5.07;;;;;;;;;;5071225;28;20404;-57
2021/01/12 08:21:40;;;;;;;6.97;5.80;;;;;;;;;;5071454;28;20218;-57
2021/01/12 08:24:08;;;;;;;6.82;5.35;;;;;;;;;;5071278;28;20484;-57
2021/01/12 08:26:34;;;;;;;7.85;4.93;;;;;;;;;;5071114;28;20183;-57
2021/01/12 08:29:00;;;;;;;6.20;4.77;;;;;;;;;;5071212;28;20215;-57
2021/01/12 08:31:26;;;;;;;5.83;5.23;;;;;;;;;;5071313;28;20542;-57
2021/01/12 08:33:56;;;;;;;6.27;5.40;;;;;;;;;;5070125;28;20414;-57
2021/01/12 08:36:26;;;;;;;5.90;5.30;;;;;;;;;;5070256;28;20435;-57
2021/01/12 08:38:53;;;;;;;5.35;4.35;;;;;;;;;;5071029;28;20700;-57
2021/01/12 08:41:20;;;;;;;5.40;4.87;;;;;;;;;;5071128;28;20182;-57
2021/01/12 08:43:47;;;;;;;5.60;5.10;;;;;;;;;;5070994;28;20496;-57
2021/01/12 08:46:13;;;;;;;5.33;4.73;;;;;;;;;;5070838;28;20401;-57
2021/01/12 08:48:49;;;;;;;5.17;4.67;;;;;;;;;;5070799;28;20402;-57
2021/01/12 08:51:16;;;;;;;5.63;5.10;;;;;;;;;;5070954;28;20902;-57
2021/01/12 08:53:42;;;;;;;5.38;4.88;;;;;;;;;;5070857;28;20904;-56
2021/01/12 08:56:09;;;;;;;8.13;5.80;;;;;;;;;;5085705;28;20180;-56
2021/01/12 08:58:35;;;;;;;6.30;5.70;;;;;;;;;;5091175;28;20797;-57
2021/01/12 09:01:03;;;;;;;8.35;5.68;;;;;;;;;;5090866;28;20428;-57
2021/01/12 09:03:30;;;;;;;7.65;6.93;;;;;;;;;;5091036;28;20158;-56
2021/01/12 09:05:56;;;;;;;8.53;6.80;;;;;;;;;;5072711;28;20657;-57
2021/01/12 09:08:22;;;;;;;7.43;6.33;;;;;;;;;;5070818;28;20874;-57
2021/01/12 09:10:48;;;;;;;9.50;6.60;;;;;;;;;;5070371;28;21200;-56
2021/01/12 09:13:15;;;;;;;10.30;7.27;;;;;;;;;;5070679;28;20429;-57
2021/01/12 09:15:41;;;;;;;6.13;5.50;;;;;;;;;;5070348;28;20457;-56
2021/01/12 09:18:19;;;;;;;7.72;6.93;;;;;;;;;;5070681;28;20394;-56
2021/01/12 09:20:52;;;;;;;9.33;6.57;;;;;;;;;;5070426;28;20192;-57
2021/01/12 09:23:18;;;;;;;7.57;6.53;;;;;;;;;;5070633;28;20410;-57
2021/01/12 09:25:50;;;;;;;8.57;7.07;;;;;;;;;;5070251;28;20180;-56
2021/01/12 09:28:17;;;;;;;7.13;6.00;;;;;;;;;;5070597;28;20395;-56
2021/01/12 09:30:44;;;;;;;5.83;3.80;;;;;;;;;;5070470;28;20454;-56
2021/01/12 09:33:14;;;;;;;2.73;2.63;;;;;;;;;;5073299;28;20411;-57
2021/01/12 09:35:40;;;;;;;3.73;3.27;;;;;;;;;;5054365;28;20486;-57
2021/01/12 09:38:07;;;;;;;2.93;2.73;;;;;;;;;;5054600;28;20402;-57
2021/01/12 09:40:33;;;;;;;4.05;3.75;;;;;;;;;;5054317;28;20426;-56
2021/01/12 09:42:58;;;;;;;5.70;4.33;;;;;;;;;;5054323;28;20167;-56
2021/01/12 09:45:27;;;;;;;5.43;4.33;;;;;;;;;;5054117;28;20402;-57
2021/01/12 09:47:53;;;;;;;5.87;4.80;;;;;;;;;;5054226;28;20490;-56
2021/01/12 09:50:19;;;;;;;6.03;4.65;;;;;;;;;;5054271;28;20450;-57
2021/01/12 09:52:45;;;;;;;11.50;5.90;;;;;;;;;;5054236;28;20164;-56
2021/01/12 09:55:11;;;;;;;5.60;5.00;;;;;;;;;;5054241;28;20754;-57
2021/01/12 09:57:38;;;;;;;5.65;5.10;;;;;;;;;;5054200;28;20533;-57
2021/01/12 10:00:08;;;;;;;7.50;6.10;;;;;;;;;;5053889;28;20230;-56
2021/01/12 10:02:34;;;;;;;8.90;5.67;;;;;;;;;;5054129;28;20168;-56
2021/01/12 10:05:00;;;;;;;7.63;5.70;;;;;;;;;;5065708;28;20435;-56
2021/01/12 10:07:26;;;;;;;9.07;6.57;;;;;;;;;;5073829;28;20455;-56
2021/01/12 10:09:52;;;;;;;10.50;6.70;;;;;;;;;;5073875;28;20453;-57
2021/01/12 10:12:18;;;;;;;9.07;8.13;;;;;;;;;;5124872;22;20484;-50
2021/01/12 10:14:44;;;;;;;11.13;8.10;;;;;;;;;;5094591;28;20397;-50
2021/01/12 10:17:11;;;;;;;11.90;8.53;;;;;;;;;;5093928;28;20583;-50
2021/01/12 10:19:37;;;;;;;10.07;8.10;;;;;;;;;;5094439;28;20446;-50
2021/01/12 10:22:03;;;;;;;14.07;8.93;;;;;;;;;;5094105;28;20417;-51
2021/01/12 10:24:29;;;;;;;12.65;8.10;;;;;;;;;;5094314;28;20409;-50
2021/01/12 10:26:55;;;;;;;11.43;9.53;;;;;;;;;;5094299;28;20210;-50
2021/01/12 10:29:26;;;;;;;12.60;9.05;;;;;;;;;;5094300;28;20445;-50
2021/01/12 10:31:52;;;;;;;10.40;7.93;;;;;;;;;;5094071;28;20287;-49
2021/01/12 10:34:20;;;;;;;16.33;8.80;;;;;;;;;;5085294;28;21003;-51
2021/01/12 10:36:49;;;;;;;11.20;8.73;;;;;;;;;;5072943;28;20916;-50
2021/01/12 10:39:15;;;;;;;12.43;9.60;;;;;;;;;;5073472;28;20409;-51
2021/01/12 10:41:41;;;;;;;12.50;9.30;;;;;;;;;;5073266;28;20849;-52
2021/01/12 10:44:07;;;;;;;12.57;10.20;;;;;;;;;;5088754;28;20420;-52
2021/01/12 10:46:33;;;;;;;13.30;8.40;;;;;;;;;;5093512;28;20428;-51
2021/01/12 10:48:59;;;;;;;13.40;9.37;;;;;;;;;;5093473;28;20774;-51
2021/01/12 10:51:25;;;;;;;15.47;10.10;;;;;;;;;;5093431;28;20410;-51
2021/01/12 10:53:51;;;;;;;13.40;9.55;;;;;;;;;;5093297;28;20918;-51
2021/01/12 10:56:18;;;;;;;14.30;10.27;;;;;;;;;;5093191;28;20167;-51
2021/01/12 10:58:44;;;;;;;17.43;10.97;;;;;;;;;;5093058;28;20449;-51
2021/01/12 11:01:14;;;;;;;12.98;9.93;;;;;;;;;;5093100;28;20575;-52
2021/01/12 11:03:40;;;;;;;14.77;11.15;;;;;;;;;;5091789;28;20182;-50
2021/01/12 11:06:07;;;;;;;13.53;10.03;;;;;;;;;;5091936;28;20181;-50
2021/01/12 11:08:33;;;;;;;16.30;10.13;;;;;;;;;;5092860;28;20454;-49
2021/01/12 11:11:01;;;;;;;14.37;9.60;;;;;;;;;;5092858;28;20190;-49
2021/01/12 11:13:27;;;;;;;11.33;9.53;;;;;;;;;;5093032;28;20404;-49
2021/01/12 11:15:56;;;;;;;9.98;7.32;;;;;;;;;;5092687;28;20398;-49
2021/01/12 11:18:23;;;;;;;11.70;6.60;;;;;;;;;;5093076;28;20648;-51
2021/01/12 11:20:49;;;;;;;7.25;6.10;;;;;;;;;;5092765;28;20264;-49
2021/01/12 11:23:15;;;;;;;7.93;6.20;;;;;;;;;;5092880;28;20209;-51
2021/01/12 11:25:41;;;;;;;7.77;5.47;;;;;;;;;;5092692;28;20396;-49
2021/01/12 11:28:07;;;;;;;6.07;5.15;;;;;;;;;;5092819;28;20396;-51
2021/01/12 11:30:34;;;;;;;6.50;5.10;;;;;;;;;;5092633;28;20674;-50
2021/01/12 11:33:00;;;;;;;5.43;4.93;;;;;;;;;;5092601;28;20517;-50
2021/01/12 11:35:26;;;;;;;5.73;4.40;;;;;;;;;;5091599;28;20186;-51
2021/01/12 11:37:52;;;;;;;6.03;3.97;;;;;;;;;;5092504;28;20392;-50
2021/01/12 11:40:19;;;;;;;4.70;3.40;;;;;;;;;;5092540;28;20239;-50
2021/01/12 11:42:45;;;;;;;5.20;2.85;;;;;;;;;;5092402;28;20272;-50
2021/01/12 11:45:11;;;;;;;3.00;2.70;;;;;;;;;;5092254;28;20602;-49
2021/01/12 11:47:37;;;;;;;4.75;2.63;;;;;;;;;;5092264;28;20912;-50
2021/01/12 11:50:08;;;;;;;2.53;2.33;;;;;;;;;;5092248;28;20189;-49
2021/01/12 11:52:34;;;;;;;5.65;2.30;;;;;;;;;;5092227;28;20186;-50
2021/01/12 11:55:00;;;;;;;2.57;2.20;;;;;;;;;;5091499;28;20262;-49
2021/01/12 11:57:27;;;;;;;3.30;3.03;;;;;;;;;;5091998;28;20400;-50
2021/01/12 11:59:53;;;;;;;2.95;2.45;;;;;;;;;;5092060;28;20457;-49
2021/01/12 12:02:19;;;;;;;2.70;2.50;;;;;;;;;;5092059;28;20601;-50
2021/01/12 12:04:44;;;;;;;4.10;2.73;;;;;;;;;;5091440;28;20803;-52
2021/01/12 12:07:10;;;;;;;3.13;2.83;;;;;;;;;;5091729;28;20759;-49
2021/01/12 12:09:36;;;;;;;4.83;3.40;;;;;;;;;;5091867;28;20960;-50
2021/01/12 12:12:03;;;;;;;5.43;4.90;;;;;;;;;;5091618;28;20450;-52
2021/01/12 12:14:30;;;;;;;5.13;4.53;;;;;;;;;;5091934;28;20435;-50
2021/01/12 12:16:56;;;;;;;5.57;4.80;;;;;;;;;;5091521;28;20234;-50
2021/01/12 12:19:22;;;;;;;4.43;3.90;;;;;;;;;;5091091;28;20190;-49
2021/01/12 12:21:48;;;;;;;4.33;3.33;;;;;;;;;;5091696;28;20191;-50
2021/01/12 12:24:15;;;;;;;3.93;3.43;;;;;;;;;;5091835;28;20404;-50
2021/01/12 12:26:41;;;;;;;4.55;2.90;;;;;;;;;;5091570;28;20927;-52
2021/01/12 12:29:07;;;;;;;3.40;2.43;;;;;;;;;;5091514;28;20179;-51
2021/01/12 12:31:33;;;;;;;2.80;2.50;;;;;;;;;;5091725;28;20433;-52
2021/01/12 12:33:59;;;;;;;4.67;2.07;;;;;;;;;;5091613;28;20540;-51
2021/01/12 12:36:25;;;;;;;11.15;2.10;;;;;;;;;;5090568;28;20427;-51
2021/01/12 12:38:51;;;;;;;3.43;2.37;;;;;;;;;;5091420;28;20564;-49
2021/01/12 12:41:17;;;;;;;4.77;4.37;;;;;;;;;;5091480;28;20431;-49
2021/01/12 12:43:44;;;;;;;2.60;2.40;;;;;;;;;;5091275;28;20393;-51
2021/01/12 12:46:11;;;;;;;2.08;1.98;;;;;;;;;;5091160;28;20170;-49
2021/01/12 12:48:38;;;;;;;2.28;2.08;;;;;;;;;;5091272;28;20180;-50
2021/01/12 12:51:05;;;;;;;6.97;2.15;;;;;;;;;;5091222;28;20624;-51
2021/01/12 12:53:33;;;;;;;7.43;2.00;;;;;;;;;;5091255;28;20180;-49
2021/01/12 12:55:59;;;;;;;2.28;2.17;;;;;;;;;;5090973;28;20173;-49
2021/01/12 12:58:26;;;;;;;4.03;2.23;;;;;;;;;;5091160;28;20235;-49
2021/01/12 13:00:52;;;;;;;2.47;2.05;;;;;;;;;;5091016;28;20402;-49
2021/01/12 13:03:18;;;;;;;2.30;2.20;;;;;;;;;;5091134;28;20172;-51
2021/01/12 13:05:44;;;;;;;2.13;2.03;;;;;;;;;;5088954;28;20178;-50
2021/01/12 13:08:11;;;;;;;8.93;2.13;;;;;;;;;;5090799;28;20248;-50
2021/01/12 13:10:37;;;;;;;2.28;1.83;;;;;;;;;;5090751;28;20251;-50
2021/01/12 13:13:03;;;;;;;2.10;2.00;;;;;;;;;;5091061;28;20197;-50
2021/01/12 13:15:30;;;;;;;4.07;1.98;;;;;;;;;;5090678;28;20406;-49
2021/01/12 13:17:57;;;;;;;2.47;1.80;;;;;;;;;;5090827;28;20228;-52
2021/01/12 13:20:27;;;;;;;2.22;1.60;;;;;;;;;;5090808;28;21107;-49
2021/01/12 13:22:54;;;;;;;3.80;2.25;;;;;;;;;;5090927;28;20549;-49
2021/01/12 13:25:23;;;;;;;4.85;1.63;;;;;;;;;;5090601;28;20170;-52
2021/01/12 13:27:50;;;;;;;6.78;1.70;;;;;;;;;;5090664;28;20174;-49
2021/01/12 13:30:16;;;;;;;1.90;1.60;;;;;;;;;;5090709;28;20194;-49
2021/01/12 13:32:43;;;;;;;5.95;2.25;;;;;;;;;;5090587;28;20226;-50
2021/01/12 13:35:10;;;;;;;2.05;1.45;;;;;;;;;;5090685;28;20182;-49
2021/01/12 13:37:36;;;;;;;6.13;3.08;;;;;;;;;;5088844;28;20581;-49
2021/01/12 13:40:02;;;;;;;8.20;1.65;;;;;;;;;;5090758;28;20525;-49
2021/01/12 13:42:28;;;;;;;1.98;1.45;;;;;;;;;;5090601;28;20205;-51
2021/01/12 13:44:54;;;;;;;5.93;2.00;;;;;;;;;;5090579;28;20289;-49
2021/01/12 13:47:20;;;;;;;4.20;1.60;;;;;;;;;;5090460;28;20588;-49
2021/01/12 13:49:46;;;;;;;4.33;1.83;;;;;;;;;;5090374;28;20462;-50
2021/01/12 13:52:16;;;;;;;7.47;1.63;;;;;;;;;;5090588;28;21035;-49
2021/01/12 13:54:42;;;;;;;3.60;1.35;;;;;;;;;;5090515;28;20162;-49
2021/01/12 13:57:11;;;;;;;1.92;1.83;;;;;;;;;;5090325;28;20166;-49
2021/01/12 13:59:39;;;;;;;1.58;1.20;;;;;;;;;;5090511;28;20663;-51
2021/01/12 14:02:08;;;;;;;1.65;1.15;;;;;;;;;;5090370;28;20198;-51
2021/01/12 14:04:34;;;;;;;5.10;1.70;;;;;;;;;;5090584;28;20181;-50
2021/01/12 14:07:00;;;;;;;3.00;1.40;;;;;;;;;;5089255;28;20553;-50
2021/01/12 14:09:26;;;;;;;3.30;1.40;;;;;;;;;;5090313;28;20189;-50
2021/01/12 14:11:54;;;;;;;5.63;1.40;;;;;;;;;;5090054;28;20960;-50
2021/01/12 14:14:20;;;;;;;2.70;2.10;;;;;;;;;;5090410;28;20775;-52
2021/01/12 14:16:46;;;;;;;1.20;1.10;;;;;;;;;;5089985;28;20166;-53
2021/01/12 14:19:15;;;;;;;1.88;1.45;;;;;;;;;;5092828;28;20455;-49
2021/01/12 14:21:47;;;;;;;2.22;1.10;;;;;;;;;;5093602;28;20186;-49
2021/01/12 14:24:13;;;;;;;1.00;0.90;;;;;;;;;;5094263;28;20153;-48
2021/01/12 14:26:39;;;;;;;1.23;1.10;;;;;;;;;;5093725;28;20700;-49
2021/01/12 14:29:05;;;;;;;1.40;1.30;;;;;;;;;;5094196;28;20202;-50
2021/01/12 14:31:32;;;;;;;3.97;1.52;;;;;;;;;;5093998;28;20810;-49
2021/01/12 14:33:58;;;;;;;7.82;1.40;;;;;;;;;;5094170;28;20163;-49